Disclaimer

Please do not use the information listed here in-flight or in-navigation, as they are not provided to us by the airports but are provided by volunteers, so they might be outdated.

Search


Regions


Airport information page

Radio informations:
Tower (TWR) - 118.3 MHz
OPNS - 143.175 MHz
Ground (GND) - 121.9 MHz
Automatic Terminal Information Service (ATIS) - 131.15 MHz
Approach (APP) - 121.2 MHz
AQUITAINE APP - 118.6 MHz

Airport informations:
Latitude: 44° 49' 42.01" N
Longitude: 000° 42' 56.00" W
Elevation: 162 feet - 49 meters
Operating hours: 24 hour operations
Operating agency: Military-civil joint use airport
Timezone: UTC+1(+2DT) - Last Sunday in March to last Sunday in October
Fuel: Jet A1+, Jet A1 with icing inhibitor.

100/130 MIL Spec, low lead, aviation gasoline (BLUE)

Runway information:
05/23 - 10171 x 148 feet< - >3100 x 45 meters
11/29 - 7923 x 148 feet< - >2415 x 45 meters

Recent METARs:
LFBD 151330Z AUTO 14004KT 110V180 3700 -RA BR OVC003/// ///TCU 08/08 Q1017 TEMPO 2000 RA OVC003
LFBD 151400Z AUTO 12006KT 090V150 1900 1200 R23/2000D R05/2100D R29/2100D -RA BR OVC003 08/08 Q1016 TEMPO RA
LFBD 151430Z AUTO 13006KT 4500 BR OVC002 08/08 Q1016 TEMPO 2000 RA

Airport on the map: